Terminal Aerodrome Forecast
Issued by NWS Brownsville, TX

Home | Current Version | Previous Version | Text Only | Print | Product List | Glossary On
Versions: 1 2 3 4 5 6 7 8 9 10 11 12 13 14 15 16 17 18 19
000
FTUS44 KBRO 211201 CCA
TAFMFE
TAF COR
KMFE 211201Z 2112/2212 11007KT P6SM BKN025 BKN030
     FM211500 15014G20KT P6SM BKN040
     FM212300 14012KT P6SM BKN035
     FM220600 14008KT P6SM BKN015=

USA.gov is the U.S. government's official web portal to all federal, state and local government web resources and services.